Time;durP1;ratioP1;P1;durP2;ratioP2;P2;SDS_P1;SDS_P2;PMS_P1;PMS_P2;Temp;Humidity;BMP_temperature;BMP_pressure;BME280_temperature;BME280_humidity;BME280_pressure;Samples;Min_cycle;Max_cycle;Signal;HPM_P1;HPM_P2
2023/07/28 00:01:08;;;;;;;3.83;2.75;;;;;;;;;;12997365;22;20371;-93
2023/07/28 00:06:11;;;;;;;4.57;2.88;;;;;;;;;;12996622;22;20751;-92
2023/07/28 00:11:15;;;;;;;4.35;2.72;;;;;;;;;;13002238;22;20413;-93
2023/07/28 00:16:18;;;;;;;3.65;2.85;;;;;;;;;;13005421;22;20404;-91
2023/07/28 00:21:22;;;;;;;5.10;2.70;;;;;;;;;;12996416;22;20486;-92
2023/07/28 00:26:24;;;;;;;4.57;3.03;;;;;;;;;;12995351;22;20416;-92
2023/07/28 00:31:26;;;;;;;3.53;2.60;;;;;;;;;;13008329;22;20351;-92
2023/07/28 00:36:30;;;;;;;6.00;2.80;;;;;;;;;;12996303;22;20437;-92
2023/07/28 00:41:32;;;;;;;4.95;2.90;;;;;;;;;;12995873;22;20375;-91
2023/07/28 00:46:35;;;;;;;3.35;3.05;;;;;;;;;;12993296;22;20367;-92
2023/07/28 00:51:39;;;;;;;5.13;2.90;;;;;;;;;;12949373;22;20937;-92
2023/07/28 00:56:42;;;;;;;3.67;2.90;;;;;;;;;;12941978;22;20388;-90
2023/07/28 01:01:45;;;;;;;4.40;2.72;;;;;;;;;;12930483;23;20824;-92
2023/07/28 01:06:58;;;;;;;3.53;2.80;;;;;;;;;;12928970;23;20367;-92
2023/07/28 01:12:01;;;;;;;3.20;2.90;;;;;;;;;;12931204;23;20368;-92
2023/07/28 01:17:04;;;;;;;4.60;3.17;;;;;;;;;;12930140;23;20415;-91
2023/07/28 01:22:40;;;;;;;5.33;2.97;;;;;;;;;;12929645;23;20820;-93
2023/07/28 01:27:44;;;;;;;4.87;3.07;;;;;;;;;;12931029;23;20547;-93
2023/07/28 01:32:47;;;;;;;3.53;2.65;;;;;;;;;;12931325;23;20360;-91
2023/07/28 01:37:50;;;;;;;2.90;2.63;;;;;;;;;;12931821;23;20384;-92
2023/07/28 01:42:54;;;;;;;3.65;2.30;;;;;;;;;;12931213;23;20419;-92
2023/07/28 01:47:56;;;;;;;3.60;2.40;;;;;;;;;;12952044;23;20404;-92
2023/07/28 01:52:59;;;;;;;3.25;2.50;;;;;;;;;;12993432;22;20401;-91
2023/07/28 01:58:03;;;;;;;3.38;2.30;;;;;;;;;;13006281;22;20379;-93
2023/07/28 02:03:07;;;;;;;3.08;2.28;;;;;;;;;;12995059;22;20359;-91
2023/07/28 02:08:09;;;;;;;2.50;2.00;;;;;;;;;;13004930;22;20363;-92
2023/07/28 02:13:13;;;;;;;2.70;2.25;;;;;;;;;;12999729;22;20358;-92
2023/07/28 02:18:15;;;;;;;2.13;1.90;;;;;;;;;;12993986;22;20382;-91
2023/07/28 02:23:17;;;;;;;5.63;2.25;;;;;;;;;;13015555;22;20370;-92
2023/07/28 02:28:21;;;;;;;3.17;2.50;;;;;;;;;;13003453;22;20520;-93
2023/07/28 02:33:24;;;;;;;3.60;2.40;;;;;;;;;;12999825;22;20499;-92
2023/07/28 02:38:27;;;;;;;4.97;2.30;;;;;;;;;;13016310;22;20370;-92
2023/07/28 02:43:30;;;;;;;4.07;2.10;;;;;;;;;;12993838;22;20355;-92
2023/07/28 02:48:33;;;;;;;2.75;2.10;;;;;;;;;;12995263;22;20444;-92
2023/07/28 02:53:35;;;;;;;3.73;2.03;;;;;;;;;;12997769;22;20398;-91
2023/07/28 02:58:39;;;;;;;5.60;2.30;;;;;;;;;;13002538;22;20382;-92
2023/07/28 03:03:41;;;;;;;4.57;2.20;;;;;;;;;;13006761;22;20367;-92
2023/07/28 03:08:44;;;;;;;3.75;2.30;;;;;;;;;;12997190;22;20393;-92
2023/07/28 03:13:48;;;;;;;3.67;2.72;;;;;;;;;;12998094;22;20428;-91
2023/07/28 03:18:50;;;;;;;3.80;2.42;;;;;;;;;;12998282;22;20445;-92
2023/07/28 03:23:52;;;;;;;3.50;2.63;;;;;;;;;;12997215;22;20362;-93
2023/07/28 03:28:56;;;;;;;4.53;2.47;;;;;;;;;;12998443;22;20444;-92
2023/07/28 03:33:58;;;;;;;4.05;2.70;;;;;;;;;;12998195;22;20363;-92
2023/07/28 03:39:01;;;;;;;3.37;2.67;;;;;;;;;;12997575;22;20367;-92
2023/07/28 03:44:05;;;;;;;4.43;2.80;;;;;;;;;;12996394;22;20405;-89
2023/07/28 03:49:07;;;;;;;6.25;2.80;;;;;;;;;;12999071;22;20380;-92
2023/07/28 03:54:10;;;;;;;4.17;2.77;;;;;;;;;;12935386;23;20368;-92
2023/07/28 03:59:13;;;;;;;4.22;2.40;;;;;;;;;;12935030;23;20702;-92
2023/07/28 04:04:16;;;;;;;4.57;2.70;;;;;;;;;;12942028;23;20423;-92
2023/07/28 04:09:18;;;;;;;2.97;2.50;;;;;;;;;;12954334;23;20399;-92
2023/07/28 04:14:22;;;;;;;3.13;2.72;;;;;;;;;;12934391;23;20395;-92
2023/07/28 04:19:24;;;;;;;4.78;2.65;;;;;;;;;;12954239;23;20372;-92
2023/07/28 04:24:27;;;;;;;3.93;2.40;;;;;;;;;;12932716;23;20403;-93
2023/07/28 04:29:30;;;;;;;3.10;2.80;;;;;;;;;;12935580;23;20368;-92
2023/07/28 04:34:34;;;;;;;10.25;3.70;;;;;;;;;;12934106;23;20369;-92
2023/07/28 04:39:36;;;;;;;3.80;2.45;;;;;;;;;;12935308;23;20364;-92
2023/07/28 04:44:40;;;;;;;3.78;2.63;;;;;;;;;;12937414;23;20399;-92
2023/07/28 04:49:43;;;;;;;7.57;3.08;;;;;;;;;;12932337;22;20364;-92
2023/07/28 04:54:45;;;;;;;3.88;1.90;;;;;;;;;;12931034;23;20411;-93
2023/07/28 04:59:49;;;;;;;2.00;1.60;;;;;;;;;;12931594;23;20399;-92
2023/07/28 05:04:51;;;;;;;2.63;1.65;;;;;;;;;;12944250;23;20365;-92
2023/07/28 05:09:54;;;;;;;2.40;1.70;;;;;;;;;;12929270;23;20369;-92
2023/07/28 05:14:57;;;;;;;3.33;1.70;;;;;;;;;;12903833;23;20430;-93
2023/07/28 05:20:00;;;;;;;3.03;1.77;;;;;;;;;;12950268;23;20364;-92
2023/07/28 05:25:03;;;;;;;6.55;2.10;;;;;;;;;;12948868;23;20391;-92
2023/07/28 05:30:08;;;;;;;6.32;2.10;;;;;;;;;;12930592;23;20368;-92
2023/07/28 05:35:10;;;;;;;2.83;1.98;;;;;;;;;;12932476;23;20403;-92
2023/07/28 05:40:13;;;;;;;2.30;1.67;;;;;;;;;;12951042;23;20429;-92
2023/07/28 05:45:17;;;;;;;3.33;1.98;;;;;;;;;;12929764;23;20453;-92
2023/07/28 05:50:20;;;;;;;3.22;1.80;;;;;;;;;;12985658;22;20366;-92
2023/07/28 05:55:22;;;;;;;3.03;2.00;;;;;;;;;;12996651;22;20428;-91
2023/07/28 06:00:26;;;;;;;4.30;1.85;;;;;;;;;;13016496;22;20355;-92
2023/07/28 06:05:28;;;;;;;4.33;2.07;;;;;;;;;;13000111;22;20400;-93
2023/07/28 06:10:31;;;;;;;4.22;1.98;;;;;;;;;;13006883;22;20358;-92
2023/07/28 06:15:36;;;;;;;2.93;1.93;;;;;;;;;;13017616;22;20382;-92
2023/07/28 06:20:38;;;;;;;3.03;2.10;;;;;;;;;;13014609;22;20393;-92
2023/07/28 06:25:43;;;;;;;3.38;2.03;;;;;;;;;;12987876;22;20370;-91
2023/07/28 06:30:47;;;;;;;4.73;2.00;;;;;;;;;;12985852;22;20359;-94
2023/07/28 06:35:50;;;;;;;5.60;1.90;;;;;;;;;;12986305;22;20434;-93
2023/07/28 06:40:56;;;;;;;3.08;1.75;;;;;;;;;;12984745;22;20370;-94
2023/07/28 06:45:59;;;;;;;3.47;1.95;;;;;;;;;;12986048;22;20358;-92
2023/07/28 06:51:02;;;;;;;3.23;1.67;;;;;;;;;;12986216;22;20858;-92
2023/07/28 06:56:07;;;;;;;4.80;1.95;;;;;;;;;;12985749;22;20412;-94
2023/07/28 07:01:11;;;;;;;4.22;1.88;;;;;;;;;;12984155;22;20408;-93
2023/07/28 07:06:13;;;;;;;2.55;1.60;;;;;;;;;;12988747;22;20374;-92
2023/07/28 07:11:16;;;;;;;3.00;1.30;;;;;;;;;;13009862;22;20363;-92
2023/07/28 07:16:19;;;;;;;3.10;1.38;;;;;;;;;;12995808;22;20444;-91
2023/07/28 07:21:22;;;;;;;2.65;1.65;;;;;;;;;;12999054;22;20424;-91
2023/07/28 07:26:24;;;;;;;2.80;1.67;;;;;;;;;;12993449;22;20359;-93
2023/07/28 07:31:28;;;;;;;4.38;2.20;;;;;;;;;;12986052;22;20485;-93
2023/07/28 07:36:31;;;;;;;2.17;1.30;;;;;;;;;;12990141;22;20379;-92
2023/07/28 07:41:34;;;;;;;1.70;1.27;;;;;;;;;;12987104;22;20367;-93
2023/07/28 07:46:38;;;;;;;2.42;1.00;;;;;;;;;;12979694;22;20367;-93
2023/07/28 07:51:40;;;;;;;2.42;0.90;;;;;;;;;;12986380;22;20920;-93
2023/07/28 07:56:43;;;;;;;2.07;1.00;;;;;;;;;;12983045;22;20874;-92
2023/07/28 08:01:47;;;;;;;1.58;1.25;;;;;;;;;;12982343;22;20355;-93
2023/07/28 08:06:49;;;;;;;2.22;1.23;;;;;;;;;;12987178;22;20370;-92
2023/07/28 08:11:52;;;;;;;3.53;1.10;;;;;;;;;;12988625;22;20366;-92
2023/07/28 08:16:56;;;;;;;3.47;1.20;;;;;;;;;;13005134;22;20413;-92
2023/07/28 08:21:58;;;;;;;1.67;1.27;;;;;;;;;;12984689;22;20367;-92
2023/07/28 08:27:01;;;;;;;2.20;1.40;;;;;;;;;;12987135;22;20367;-94
2023/07/28 08:32:05;;;;;;;2.75;1.20;;;;;;;;;;13002915;22;20508;-92
2023/07/28 08:37:08;;;;;;;2.23;1.13;;;;;;;;;;12998371;22;20386;-93
2023/07/28 08:42:10;;;;;;;2.92;1.45;;;;;;;;;;12985749;22;20367;-92
2023/07/28 08:47:15;;;;;;;2.60;1.20;;;;;;;;;;13009865;22;20362;-91
2023/07/28 08:52:18;;;;;;;3.08;1.10;;;;;;;;;;12983531;22;20746;-90
2023/07/28 08:57:21;;;;;;;1.90;0.80;;;;;;;;;;12982195;22;20383;-92
2023/07/28 09:02:25;;;;;;;5.07;1.20;;;;;;;;;;12984926;22;20413;-91
2023/07/28 09:07:29;;;;;;;1.90;1.00;;;;;;;;;;12987596;22;21090;-92
2023/07/28 09:12:33;;;;;;;2.63;1.10;;;;;;;;;;12982585;22;20371;-92
2023/07/28 09:17:43;;;;;;;3.15;1.20;;;;;;;;;;12983989;22;20378;-91
2023/07/28 09:22:46;;;;;;;4.28;1.80;;;;;;;;;;12989205;22;20366;-91
2023/07/28 09:27:52;;;;;;;1.90;1.10;;;;;;;;;;12988007;22;20367;-91
2023/07/28 09:32:56;;;;;;;1.58;0.90;;;;;;;;;;12983851;22;20363;-90
2023/07/28 09:37:59;;;;;;;2.40;0.90;;;;;;;;;;12983937;22;20383;-89
2023/07/28 09:43:01;;;;;;;3.80;0.90;;;;;;;;;;13006450;22;20442;-91
2023/07/28 09:48:08;;;;;;;2.63;0.97;;;;;;;;;;12983283;22;20413;-92
2023/07/28 09:53:11;;;;;;;2.20;1.25;;;;;;;;;;13006052;22;20366;-92
2023/07/28 09:58:18;;;;;;;2.28;0.90;;;;;;;;;;12986637;22;20459;-91
2023/07/28 10:03:22;;;;;;;2.88;0.95;;;;;;;;;;12987743;22;20896;-91
2023/07/28 10:08:26;;;;;;;2.57;1.27;;;;;;;;;;13002618;22;20394;-91
2023/07/28 10:13:28;;;;;;;1.40;0.90;;;;;;;;;;13000342;22;20818;-91
2023/07/28 10:18:32;;;;;;;2.15;1.10;;;;;;;;;;12990910;22;20436;-91
2023/07/28 10:23:37;;;;;;;2.75;1.25;;;;;;;;;;12995018;22;20830;-91
2023/07/28 10:28:41;;;;;;;2.17;1.23;;;;;;;;;;12992534;22;20420;-91
2023/07/28 10:33:46;;;;;;;1.73;1.08;;;;;;;;;;12997017;22;20396;-91
2023/07/28 10:39:00;;;;;;;2.30;1.20;;;;;;;;;;12991648;22;20409;-91
2023/07/28 10:44:03;;;;;;;2.88;1.10;;;;;;;;;;12987975;22;20385;-91
2023/07/28 10:49:08;;;;;;;1.50;0.88;;;;;;;;;;12990144;22;20370;-91
2023/07/28 10:54:15;;;;;;;1.30;0.90;;;;;;;;;;13010851;22;20363;-91
2023/07/28 10:59:18;;;;;;;1.73;1.03;;;;;;;;;;12987216;22;20441;-92
2023/07/28 11:04:23;;;;;;;3.13;1.15;;;;;;;;;;12984091;22;20359;-90
2023/07/28 11:09:25;;;;;;;1.93;1.10;;;;;;;;;;12984296;22;20436;-90
2023/07/28 11:14:29;;;;;;;2.28;1.15;;;;;;;;;;12978711;22;20858;-90
2023/07/28 11:19:35;;;;;;;2.60;1.20;;;;;;;;;;13002798;22;20378;-91
2023/07/28 11:24:37;;;;;;;1.83;1.40;;;;;;;;;;12976596;22;20370;-91
2023/07/28 11:29:41;;;;;;;2.83;1.30;;;;;;;;;;12979855;22;20378;-91
2023/07/28 11:34:45;;;;;;;2.67;1.40;;;;;;;;;;12984875;22;20456;-91
2023/07/28 11:39:48;;;;;;;4.82;2.20;;;;;;;;;;12978283;22;20417;-91
2023/07/28 11:44:50;;;;;;;1.48;1.10;;;;;;;;;;12981401;22;20382;-91
2023/07/28 11:49:54;;;;;;;1.80;1.27;;;;;;;;;;12976603;22;20379;-92
2023/07/28 11:54:56;;;;;;;2.07;1.20;;;;;;;;;;12988185;22;20382;-90
2023/07/28 11:59:59;;;;;;;2.58;1.25;;;;;;;;;;12990969;22;20386;-92
2023/07/28 12:05:12;;;;;;;7.22;2.10;;;;;;;;;;12984379;22;20495;-90
2023/07/28 12:10:15;;;;;;;2.58;1.30;;;;;;;;;;12983022;22;20363;-91
2023/07/28 12:15:23;;;;;;;1.75;1.33;;;;;;;;;;12984460;22;20417;-92
2023/07/28 12:20:26;;;;;;;2.28;1.30;;;;;;;;;;12986213;22;20408;-92
2023/07/28 12:25:29;;;;;;;2.33;1.33;;;;;;;;;;12984878;22;20367;-92
2023/07/28 12:30:31;;;;;;;1.90;1.10;;;;;;;;;;13008347;22;20404;-91
2023/07/28 12:35:35;;;;;;;3.47;1.67;;;;;;;;;;12987190;22;20420;-92
2023/07/28 12:40:38;;;;;;;4.20;1.70;;;;;;;;;;12985873;22;20488;-91
2023/07/28 12:45:41;;;;;;;3.93;1.43;;;;;;;;;;12985718;22;20359;-92
2023/07/28 12:50:44;;;;;;;2.83;1.30;;;;;;;;;;13015948;22;20367;-92
2023/07/28 12:55:47;;;;;;;1.65;1.13;;;;;;;;;;13005375;22;20366;-92
2023/07/28 13:00:49;;;;;;;2.13;1.38;;;;;;;;;;13006430;22;20881;-92
2023/07/28 13:05:53;;;;;;;1.80;1.50;;;;;;;;;;12984551;22;20367;-92
2023/07/28 13:10:55;;;;;;;3.22;1.38;;;;;;;;;;13010259;22;20370;-89
2023/07/28 13:15:58;;;;;;;3.78;1.60;;;;;;;;;;12996572;22;20358;-91
2023/07/28 13:21:02;;;;;;;1.20;1.10;;;;;;;;;;12988742;22;20405;-92
2023/07/28 13:26:05;;;;;;;2.13;1.60;;;;;;;;;;12987021;22;20676;-92
2023/07/28 13:31:07;;;;;;;1.63;1.50;;;;;;;;;;12982156;22;20366;-92
2023/07/28 13:36:11;;;;;;;2.80;1.60;;;;;;;;;;12988868;22;20363;-92
2023/07/28 13:41:13;;;;;;;3.13;1.52;;;;;;;;;;12984401;22;20390;-90
2023/07/28 13:46:16;;;;;;;2.38;1.60;;;;;;;;;;12983169;22;20366;-91
2023/07/28 13:51:22;;;;;;;2.35;1.58;;;;;;;;;;12981909;22;20450;-92
2023/07/28 13:56:24;;;;;;;2.63;1.23;;;;;;;;;;12983844;22;20358;-92
2023/07/28 14:01:26;;;;;;;1.50;1.33;;;;;;;;;;12998596;22;20383;-92
2023/07/28 14:06:30;;;;;;;2.90;1.63;;;;;;;;;;12981008;22;20405;-90
2023/07/28 14:11:33;;;;;;;2.53;1.40;;;;;;;;;;12984414;22;20390;-89
2023/07/28 14:16:35;;;;;;;2.80;1.33;;;;;;;;;;12980840;22;20370;-90
2023/07/28 14:21:39;;;;;;;3.13;1.50;;;;;;;;;;12986945;22;20378;-92
2023/07/28 14:26:41;;;;;;;2.72;1.40;;;;;;;;;;12983521;22;20420;-93
2023/07/28 14:31:44;;;;;;;2.53;1.60;;;;;;;;;;12980035;22;20447;-94
2023/07/28 14:36:47;;;;;;;2.83;1.35;;;;;;;;;;12981588;22;20444;-93
2023/07/28 14:41:55;;;;;;;2.72;1.60;;;;;;;;;;12978928;22;20436;-93
2023/07/28 14:46:57;;;;;;;2.60;1.40;;;;;;;;;;12980243;22;20392;-91
2023/07/28 14:52:01;;;;;;;2.67;1.50;;;;;;;;;;12983052;22;20420;-92
2023/07/28 14:57:03;;;;;;;3.95;1.75;;;;;;;;;;12984247;22;20359;-93
2023/07/28 15:02:06;;;;;;;1.80;1.45;;;;;;;;;;12983023;22;20932;-93
2023/07/28 15:07:09;;;;;;;1.80;1.48;;;;;;;;;;12988633;22;20397;-93
2023/07/28 15:12:12;;;;;;;3.22;1.55;;;;;;;;;;12986295;22;20367;-91
2023/07/28 15:17:14;;;;;;;1.48;1.30;;;;;;;;;;13004149;22;20842;-92
2023/07/28 15:22:18;;;;;;;3.13;1.58;;;;;;;;;;12984401;22;20379;-93
2023/07/28 15:27:20;;;;;;;2.53;1.47;;;;;;;;;;13003083;22;20375;-91
2023/07/28 15:32:22;;;;;;;3.20;1.60;;;;;;;;;;13010898;22;20367;-90
2023/07/28 15:37:26;;;;;;;3.83;1.65;;;;;;;;;;12985656;22;20458;-92
2023/07/28 15:42:28;;;;;;;3.60;1.57;;;;;;;;;;12989111;22;20362;-91
2023/07/28 15:47:32;;;;;;;2.30;1.60;;;;;;;;;;12989645;22;20754;-91
2023/07/28 15:52:36;;;;;;;3.28;1.75;;;;;;;;;;12986771;22;20401;-92
2023/07/28 15:57:39;;;;;;;3.67;1.67;;;;;;;;;;12984209;22;20359;-93
2023/07/28 16:02:41;;;;;;;3.30;1.80;;;;;;;;;;12982510;22;20362;-92
2023/07/28 16:07:45;;;;;;;2.55;1.45;;;;;;;;;;12984778;22;20394;-85
2023/07/28 16:12:47;;;;;;;3.72;1.65;;;;;;;;;;12982536;22;20416;-88
2023/07/28 16:17:49;;;;;;;3.05;1.48;;;;;;;;;;12986200;22;20367;-89
2023/07/28 16:22:53;;;;;;;2.75;1.60;;;;;;;;;;12975686;22;20409;-89
2023/07/28 16:27:55;;;;;;;3.25;1.85;;;;;;;;;;12972057;22;20801;-89
2023/07/28 16:32:58;;;;;;;3.20;1.60;;;;;;;;;;12972363;22;20378;-89
2023/07/28 16:38:02;;;;;;;2.47;1.52;;;;;;;;;;12972438;22;20367;-88
2023/07/28 16:43:04;;;;;;;2.27;1.40;;;;;;;;;;12974572;22;21110;-90
2023/07/28 16:48:07;;;;;;;2.58;1.42;;;;;;;;;;12972901;22;20367;-91
2023/07/28 16:53:11;;;;;;;4.00;2.20;;;;;;;;;;12932957;23;20368;-89
2023/07/28 16:58:13;;;;;;;3.72;1.75;;;;;;;;;;12911544;23;20380;-89
2023/07/28 17:03:16;;;;;;;3.17;1.77;;;;;;;;;;12909055;23;20380;-88
2023/07/28 17:08:20;;;;;;;3.13;1.70;;;;;;;;;;12910696;23;20380;-91
2023/07/28 17:13:22;;;;;;;2.20;1.60;;;;;;;;;;12914011;23;20372;-93
2023/07/28 17:18:24;;;;;;;2.53;1.63;;;;;;;;;;12914483;23;20828;-93
2023/07/28 17:23:28;;;;;;;2.80;1.60;;;;;;;;;;12919752;23;20431;-94
2023/07/28 17:28:31;;;;;;;2.60;1.90;;;;;;;;;;12910089;23;20384;-93
2023/07/28 17:33:33;;;;;;;2.97;1.55;;;;;;;;;;12915953;23;20384;-94
2023/07/28 17:38:37;;;;;;;2.30;1.50;;;;;;;;;;12915738;23;20443;-94
2023/07/28 17:43:39;;;;;;;1.50;1.30;;;;;;;;;;12914562;23;20376;-94
2023/07/28 17:48:42;;;;;;;3.03;1.50;;;;;;;;;;12923027;22;20913;-94
2023/07/28 17:53:45;;;;;;;2.60;1.40;;;;;;;;;;12979159;22;20371;-94
2023/07/28 17:58:48;;;;;;;1.25;1.10;;;;;;;;;;12978433;22;20382;-94
2023/07/28 18:03:54;;;;;;;3.10;1.60;;;;;;;;;;12975964;22;20409;-93
2023/07/28 18:08:57;;;;;;;4.67;2.00;;;;;;;;;;12983745;22;20439;-94
2023/07/28 18:14:00;;;;;;;1.50;1.40;;;;;;;;;;12983211;22;20371;-95
2023/07/28 18:19:02;;;;;;;2.55;1.67;;;;;;;;;;12991647;22;20386;-93
2023/07/28 18:24:06;;;;;;;3.20;2.05;;;;;;;;;;12993645;22;20432;-94
2023/07/28 18:29:08;;;;;;;3.42;1.90;;;;;;;;;;12986113;22;20370;-94
2023/07/28 18:34:11;;;;;;;2.80;1.92;;;;;;;;;;12983073;22;20435;-94
2023/07/28 18:39:14;;;;;;;3.55;1.80;;;;;;;;;;12988344;22;20378;-92
2023/07/28 18:44:17;;;;;;;2.35;1.45;;;;;;;;;;13000351;22;20405;-92
2023/07/28 18:49:19;;;;;;;2.50;1.40;;;;;;;;;;12978406;22;20366;-92
2023/07/28 18:54:23;;;;;;;3.20;1.40;;;;;;;;;;12977479;22;20371;-90
2023/07/28 18:59:25;;;;;;;3.10;1.20;;;;;;;;;;12977593;22;20386;-90
2023/07/28 19:04:30;;;;;;;1.95;1.60;;;;;;;;;;12972889;22;20386;-90
2023/07/28 19:09:33;;;;;;;2.63;1.42;;;;;;;;;;12975993;22;20455;-90
2023/07/28 19:14:37;;;;;;;3.10;1.60;;;;;;;;;;12983893;22;20436;-93
2023/07/28 19:19:40;;;;;;;4.03;1.50;;;;;;;;;;12973381;22;20448;-89
2023/07/28 19:24:46;;;;;;;2.60;1.30;;;;;;;;;;12975739;22;20598;-90
2023/07/28 19:29:51;;;;;;;2.42;1.48;;;;;;;;;;12975749;22;20858;-91
2023/07/28 19:40:19;;;;;;;2.83;1.50;;;;;;;;;;12947268;22;20383;-90
2023/07/28 19:45:26;;;;;;;3.10;1.70;;;;;;;;;;12970159;22;20393;-90
2023/07/28 19:50:28;;;;;;;3.10;1.50;;;;;;;;;;12977303;22;20440;-91
2023/07/28 19:55:33;;;;;;;3.27;2.33;;;;;;;;;;12977464;22;20363;-91
2023/07/28 20:00:35;;;;;;;3.07;2.40;;;;;;;;;;12977706;22;20382;-92
2023/07/28 20:05:37;;;;;;;2.53;1.87;;;;;;;;;;12986525;22;20372;-92
2023/07/28 20:10:41;;;;;;;4.37;2.20;;;;;;;;;;12993221;22;20436;-93
2023/07/28 20:15:44;;;;;;;3.08;2.45;;;;;;;;;;12977601;22;21086;-91
2023/07/28 20:20:47;;;;;;;3.55;1.98;;;;;;;;;;12977747;22;20382;-92
2023/07/28 20:25:53;;;;;;;3.90;1.77;;;;;;;;;;12987530;22;20432;-90
2023/07/28 20:30:56;;;;;;;3.72;1.88;;;;;;;;;;12976460;22;20376;-92
2023/07/28 20:35:59;;;;;;;3.85;2.20;;;;;;;;;;12978826;22;20379;-91
2023/07/28 20:41:03;;;;;;;3.40;2.08;;;;;;;;;;12979681;22;20386;-90
2023/07/28 20:46:05;;;;;;;5.00;3.00;;;;;;;;;;12993710;22;20831;-90
2023/07/28 20:51:07;;;;;;;4.05;3.30;;;;;;;;;;12975582;22;20909;-92
2023/07/28 20:56:11;;;;;;;5.00;3.55;;;;;;;;;;12997336;22;20375;-92
2023/07/28 21:01:14;;;;;;;4.43;3.53;;;;;;;;;;12977800;22;20395;-92
2023/07/28 21:06:16;;;;;;;3.88;3.00;;;;;;;;;;12977576;22;20850;-91
2023/07/28 21:11:20;;;;;;;7.68;4.20;;;;;;;;;;12980775;22;20378;-91
2023/07/28 21:16:22;;;;;;;4.87;3.83;;;;;;;;;;12978462;22;20420;-92
2023/07/28 21:21:24;;;;;;;5.35;3.80;;;;;;;;;;12979319;22;20386;-92
2023/07/28 21:26:28;;;;;;;4.32;3.53;;;;;;;;;;12977863;22;20378;-91
2023/07/28 21:31:30;;;;;;;4.30;3.17;;;;;;;;;;12980816;22;20382;-92
2023/07/28 21:36:32;;;;;;;5.40;3.40;;;;;;;;;;12980696;22;20378;-91
2023/07/28 21:41:36;;;;;;;4.17;3.00;;;;;;;;;;12987156;22;20391;-91
2023/07/28 21:46:39;;;;;;;3.83;2.90;;;;;;;;;;12986795;22;20379;-92
2023/07/28 21:51:41;;;;;;;4.53;3.10;;;;;;;;;;12994378;22;20370;-92
2023/07/28 21:56:45;;;;;;;3.65;2.90;;;;;;;;;;13007416;22;20425;-91
2023/07/28 22:01:48;;;;;;;6.00;3.40;;;;;;;;;;12975918;22;20387;-92
2023/07/28 22:06:50;;;;;;;5.35;3.10;;;;;;;;;;12975865;22;20842;-92
2023/07/28 22:11:54;;;;;;;4.37;3.13;;;;;;;;;;12976663;22;20363;-91
2023/07/28 22:16:56;;;;;;;4.50;3.38;;;;;;;;;;12977619;22;20440;-91
2023/07/28 22:21:59;;;;;;;4.97;3.00;;;;;;;;;;12978859;22;20378;-92
2023/07/28 22:27:02;;;;;;;3.90;3.38;;;;;;;;;;13000306;22;20414;-91
2023/07/28 22:32:06;;;;;;;4.75;3.30;;;;;;;;;;12981850;22;20362;-92
2023/07/28 22:37:08;;;;;;;3.95;3.55;;;;;;;;;;13003810;22;20900;-92
2023/07/28 22:42:12;;;;;;;6.38;3.65;;;;;;;;;;12983498;22;20383;-92
2023/07/28 22:47:14;;;;;;;5.15;3.53;;;;;;;;;;12998154;22;20684;-92
2023/07/28 22:52:18;;;;;;;6.05;2.90;;;;;;;;;;12983920;22;20842;-92
2023/07/28 22:57:22;;;;;;;3.13;2.77;;;;;;;;;;12984061;22;20846;-90
2023/07/28 23:02:24;;;;;;;4.13;2.70;;;;;;;;;;12983446;22;20901;-91
2023/07/28 23:07:26;;;;;;;3.38;2.85;;;;;;;;;;13007153;22;20432;-92
2023/07/28 23:12:30;;;;;;;5.30;2.97;;;;;;;;;;13010375;22;20447;-92
2023/07/28 23:17:32;;;;;;;4.07;2.80;;;;;;;;;;12989009;22;20900;-92
2023/07/28 23:22:35;;;;;;;4.93;3.28;;;;;;;;;;12988272;22;20456;-91
2023/07/28 23:27:38;;;;;;;4.85;3.90;;;;;;;;;;12988669;22;20966;-92
2023/07/28 23:32:41;;;;;;;6.50;4.97;;;;;;;;;;12980217;22;20358;-92
2023/07/28 23:37:43;;;;;;;7.30;4.82;;;;;;;;;;13002911;22;20370;-92
2023/07/28 23:42:47;;;;;;;6.67;5.20;;;;;;;;;;12980914;22;20383;-92
2023/07/28 23:47:50;;;;;;;6.95;4.90;;;;;;;;;;12982996;22;20359;-93
2023/07/28 23:52:52;;;;;;;7.70;4.47;;;;;;;;;;12994512;22;20378;-92
2023/07/28 23:57:56;;;;;;;5.20;4.00;;;;;;;;;;12984477;22;20363;-93
